Time;durP1;ratioP1;P1;durP2;ratioP2;P2;SDS_P1;SDS_P2;PMS_P1;PMS_P2;Temp;Humidity;BMP_temperature;BMP_pressure;BME280_temperature;BME280_humidity;BME280_pressure;Samples;Min_cycle;Max_cycle;Signal;HPM_P1;HPM_P2
2023/11/01 05:01:19;;;;;;;6.15;2.00;;;11.00;99.90;;;;;;6153795;22;1602723;-89
2023/11/01 05:03:45;;;;;;;14.18;1.80;;;11.00;99.90;;;;;;6233283;22;20810;-89
2023/11/01 05:06:11;;;;;;;4.32;1.58;;;12.00;99.90;;;;;;6231468;22;20048;-89
2023/11/01 05:08:36;;;;;;;3.97;1.58;;;11.00;99.90;;;;;;6236881;22;20009;-91
2023/11/01 05:11:02;;;;;;;4.20;1.55;;;11.10;99.90;;;;;;6236873;22;20290;-89
2023/11/01 05:13:28;;;;;;;6.40;1.75;;;11.00;99.90;;;;;;6182045;23;20055;-89
2023/11/01 05:15:54;;;;;;;4.20;1.60;;;12.50;99.90;;;;;;6235175;22;20028;-90
2023/11/01 05:18:20;;;;;;;4.25;1.63;;;11.80;99.90;;;;;;6234589;23;19997;-90
2023/11/01 05:20:45;;;;;;;5.53;1.67;;;10.90;99.90;;;;;;6235094;23;20061;-87
2023/11/01 05:23:11;;;;;;;7.03;1.80;;;11.30;99.90;;;;;;6236221;22;20000;-88
2023/11/01 05:25:36;;;;;;;6.55;1.52;;;11.10;99.90;;;;;;6239385;22;19997;-89
2023/11/01 05:28:02;;;;;;;8.98;2.10;;;10.90;99.90;;;;;;6238837;22;19996;-87
2023/11/01 05:30:28;;;;;;;5.20;1.83;;;10.90;99.90;;;;;;6213864;23;20000;-88
2023/11/01 05:32:53;;;;;;;4.45;1.98;;;11.20;99.90;;;;;;6239844;22;20000;-89
2023/11/01 05:35:19;;;;;;;4.43;1.60;;;12.00;99.90;;;;;;6239326;22;19992;-87
2023/11/01 05:37:45;;;;;;;5.43;1.80;;;12.40;99.90;;;;;;6240366;22;20331;-88
2023/11/01 05:40:13;;;;;;;9.02;2.08;;;11.10;99.90;;;;;;6240060;22;20045;-88
2023/11/01 05:42:44;;;;;;;5.65;1.70;;;10.80;99.90;;;;;;6239940;22;19997;-88
2023/11/01 05:45:15;;;;;;;7.35;1.80;;;10.80;99.90;;;;;;6238953;22;20009;-87
2023/11/01 05:47:41;;;;;;;6.97;1.85;;;12.40;99.90;;;;;;6241087;23;19988;-89
2023/11/01 05:50:07;;;;;;;5.97;1.58;;;11.70;99.90;;;;;;6240515;22;20016;-88
2023/11/01 05:52:36;;;;;;;7.90;1.50;;;10.70;99.90;;;;;;6238873;22;19994;-87
2023/11/01 05:55:01;;;;;;;11.60;2.05;;;10.70;99.90;;;;;;6240385;22;20017;-89
2023/11/01 05:57:27;;;;;;;7.35;1.90;;;10.70;99.90;;;;;;6240446;22;19997;-87
2023/11/01 05:59:53;;;;;;;6.60;1.80;;;10.60;99.90;;;;;;6240547;22;20015;-88
2023/11/01 06:02:19;;;;;;;7.20;1.50;;;11.60;99.90;;;;;;6262249;22;20043;-87
2023/11/01 06:04:45;;;;;;;5.68;1.67;;;11.50;99.90;;;;;;6271233;22;20001;-88
2023/11/01 06:07:10;;;;;;;9.25;1.90;;;11.30;99.90;;;;;;6219120;23;20014;-87
2023/11/01 06:09:36;;;;;;;5.57;1.95;;;12.00;99.90;;;;;;6245590;23;20053;-88
2023/11/01 06:12:05;;;;;;;5.60;2.45;;;11.70;99.90;;;;;;6244063;22;20060;-88
2023/11/01 06:14:32;;;;;;;5.57;1.40;;;10.60;99.90;;;;;;6220908;22;19996;-89
2023/11/01 06:16:57;;;;;;;5.40;1.65;;;10.60;99.90;;;;;;6269981;22;20002;-89
2023/11/01 06:19:23;;;;;;;5.70;1.88;;;10.60;99.90;;;;;;6243309;22;19993;-87
2023/11/01 06:21:49;;;;;;;12.30;2.05;;;10.40;99.90;;;;;;6269861;22;19992;-88
2023/11/01 06:24:14;;;;;;;4.93;1.85;;;12.10;99.90;;;;;;6243331;22;20530;-89
2023/11/01 06:26:40;;;;;;;7.13;2.55;;;11.10;99.90;;;;;;6244078;22;20019;-87
2023/11/01 06:29:06;;;;;;;9.05;3.22;;;10.40;99.90;;;;;;6267402;22;19996;-88
2023/11/01 06:31:31;;;;;;;5.10;1.67;;;11.00;99.90;;;;;;6241590;23;19992;-89
2023/11/01 06:33:57;;;;;;;4.88;1.52;;;12.10;99.90;;;;;;6268486;22;19996;-88
2023/11/01 06:36:22;;;;;;;8.75;1.85;;;10.40;99.90;;;;;;6268342;22;19984;-89
2023/11/01 06:38:48;;;;;;;6.90;1.85;;;11.50;99.90;;;;;;6268491;22;20000;-87
2023/11/01 06:41:14;;;;;;;7.20;1.90;;;10.90;99.90;;;;;;6242773;22;19985;-89
2023/11/01 06:43:39;;;;;;;6.20;2.38;;;10.40;99.90;;;;;;6241711;23;20209;-88
2023/11/01 06:46:05;;;;;;;5.65;1.60;;;10.70;99.90;;;;;;6267222;22;20004;-88
2023/11/01 06:48:30;;;;;;;4.80;1.55;;;10.30;99.90;;;;;;6239407;23;19984;-88
2023/11/01 06:50:56;;;;;;;6.13;1.70;;;10.30;99.90;;;;;;6241972;22;20007;-89
2023/11/01 06:53:22;;;;;;;6.30;2.33;;;10.30;99.90;;;;;;6268059;22;20020;-88
2023/11/01 06:55:47;;;;;;;4.68;1.70;;;11.70;99.90;;;;;;6267893;23;20063;-91
2023/11/01 06:58:13;;;;;;;7.80;1.70;;;11.70;99.90;;;;;;6240540;23;20062;-88
2023/11/01 07:00:38;;;;;;;4.80;1.60;;;10.20;99.90;;;;;;6265577;22;19995;-88
2023/11/01 07:03:04;;;;;;;4.88;1.80;;;10.30;99.90;;;;;;6215285;23;20012;-87
2023/11/01 07:05:30;;;;;;;6.50;1.67;;;10.30;99.90;;;;;;6266988;22;20004;-89
2023/11/01 07:07:55;;;;;;;7.43;2.15;;;10.30;99.90;;;;;;6241941;23;19984;-89
2023/11/01 07:10:21;;;;;;;6.47;1.65;;;10.40;99.90;;;;;;6268645;22;19997;-88
2023/11/01 07:12:46;;;;;;;10.20;1.73;;;10.30;99.90;;;;;;6267921;22;20334;-88
2023/11/01 07:15:12;;;;;;;5.57;1.70;;;10.40;99.90;;;;;;6241218;23;20024;-87
2023/11/01 07:17:38;;;;;;;6.80;2.05;;;10.40;99.90;;;;;;6267149;23;19992;-87
2023/11/01 07:20:04;;;;;;;6.88;1.27;;;9.80;99.90;;;;;;6241075;23;20014;-87
2023/11/01 07:22:30;;;;;;;4.47;1.52;;;10.40;99.90;;;;;;6240564;23;20019;-86
2023/11/01 07:24:56;;;;;;;5.22;1.55;;;10.70;99.90;;;;;;6269033;22;19996;-88
2023/11/01 07:27:22;;;;;;;4.50;1.70;;;10.90;99.90;;;;;;6244292;23;20257;-88
2023/11/01 07:29:48;;;;;;;8.57;1.65;;;11.20;99.90;;;;;;6242333;22;20084;-88
2023/11/01 07:32:13;;;;;;;2.92;1.17;;;10.50;99.90;;;;;;6268397;22;19992;-89
2023/11/01 07:34:40;;;;;;;4.20;1.30;;;11.30;99.90;;;;;;6244394;22;20007;-88
2023/11/01 07:37:05;;;;;;;6.68;1.50;;;10.60;99.90;;;;;;6244461;22;19995;-89
2023/11/01 07:39:31;;;;;;;10.40;1.92;;;10.50;99.90;;;;;;6241772;23;20012;-89
2023/11/01 07:41:56;;;;;;;5.82;1.58;;;10.50;99.90;;;;;;6241534;23;20000;-89
2023/11/01 07:44:22;;;;;;;7.35;1.95;;;10.60;99.90;;;;;;6242396;23;20087;-86
2023/11/01 07:46:48;;;;;;;5.03;1.67;;;10.60;99.90;;;;;;6267910;22;19999;-87
2023/11/01 07:49:13;;;;;;;4.57;1.83;;;10.70;99.90;;;;;;6268830;23;19984;-88
2023/11/01 07:51:39;;;;;;;6.28;1.65;;;10.70;99.90;;;;;;6217421;23;20008;-89
2023/11/01 07:54:04;;;;;;;7.72;1.67;;;11.60;99.90;;;;;;6269734;22;19988;-89
2023/11/01 07:56:33;;;;;;;5.97;1.55;;;10.90;99.90;;;;;;6237367;22;20012;-89
2023/11/01 07:58:59;;;;;;;5.55;2.17;;;10.90;99.90;;;;;;6239767;23;19993;-86
2023/11/01 08:01:24;;;;;;;7.32;1.70;;;11.00;99.90;;;;;;6237268;23;20075;-88
2023/11/01 08:03:50;;;;;;;7.43;1.42;;;12.30;99.90;;;;;;6265890;22;20004;-89
2023/11/01 08:06:16;;;;;;;5.95;1.75;;;11.90;99.90;;;;;;6240875;23;19997;-89
2023/11/01 08:08:42;;;;;;;3.30;1.40;;;11.20;99.90;;;;;;6240749;22;20040;-89
2023/11/01 08:11:08;;;;;;;3.22;1.40;;;11.20;99.90;;;;;;6242076;23;20014;-89
2023/11/01 08:13:34;;;;;;;3.92;1.52;;;11.70;99.90;;;;;;6241571;23;20008;-88
2023/11/01 08:16:00;;;;;;;4.10;1.30;;;12.00;99.90;;;;;;6264791;23;20007;-89
2023/11/01 08:18:28;;;;;;;3.65;1.52;;;12.40;99.90;;;;;;6237713;23;20020;-88
2023/11/01 08:20:54;;;;;;;14.50;1.90;;;12.90;99.90;;;;;;6264428;22;20011;-88
2023/11/01 08:23:20;;;;;;;4.28;1.50;;;11.60;99.90;;;;;;6263842;23;20008;-89
2023/11/01 08:25:45;;;;;;;3.90;1.30;;;11.60;99.90;;;;;;6235098;23;20590;-87
2023/11/01 08:28:11;;;;;;;3.92;1.40;;;11.60;99.90;;;;;;6236627;23;20004;-86
2023/11/01 08:30:36;;;;;;;3.25;1.38;;;11.70;99.90;;;;;;6263567;22;20005;-88
2023/11/01 08:33:02;;;;;;;5.65;1.55;;;12.60;99.90;;;;;;6264429;23;20000;-89
2023/11/01 08:35:29;;;;;;;6.18;1.52;;;11.90;99.90;;;;;;6261181;23;20006;-88
2023/11/01 08:37:55;;;;;;;5.32;1.35;;;11.90;99.90;;;;;;6232264;22;20007;-88
2023/11/01 08:40:21;;;;;;;5.20;1.05;;;12.40;99.90;;;;;;6263787;23;20056;-89
2023/11/01 08:42:46;;;;;;;3.47;1.35;;;11.90;99.90;;;;;;6233400;23;20020;-89
2023/11/01 08:45:12;;;;;;;4.20;1.33;;;12.90;99.90;;;;;;6234335;23;20026;-88
2023/11/01 08:47:44;;;;;;;2.25;1.00;;;13.40;99.90;;;;;;6234630;23;20004;-88
2023/11/01 08:50:12;;;;;;;5.70;1.02;;;12.10;99.90;;;;;;6261801;22;20069;-90
2023/11/01 08:52:39;;;;;;;8.00;1.10;;;13.60;99.90;;;;;;6233545;23;20012;-89
2023/11/01 08:55:06;;;;;;;2.83;1.20;;;12.20;99.90;;;;;;6264141;23;20014;-87
2023/11/01 08:57:32;;;;;;;3.65;1.58;;;12.20;99.90;;;;;;6238727;23;20068;-88
2023/11/01 08:59:58;;;;;;;4.80;1.13;;;13.80;99.90;;;;;;6266290;22;19996;-90
2023/11/01 09:02:27;;;;;;;3.47;1.20;;;12.20;99.90;;;;;;6238131;23;20043;-88
2023/11/01 09:04:59;;;;;;;5.25;1.17;;;12.90;99.90;;;;;;6237842;23;20000;-89
2023/11/01 09:07:24;;;;;;;3.67;1.40;;;12.40;99.90;;;;;;6259569;23;20007;-89
2023/11/01 09:09:52;;;;;;;3.78;1.10;;;12.50;99.90;;;;;;6235393;23;20071;-88
2023/11/01 09:12:18;;;;;;;5.63;1.10;;;12.60;99.90;;;;;;6262278;22;20004;-86
2023/11/01 09:14:45;;;;;;;4.60;1.10;;;13.30;99.90;;;;;;6236497;23;20103;-86
2023/11/01 09:17:12;;;;;;;3.10;1.20;;;12.50;99.90;;;;;;6212412;23;19989;-89
2023/11/01 09:19:38;;;;;;;6.55;1.35;;;12.40;99.90;;;;;;6240893;23;20071;-89
2023/11/01 09:22:04;;;;;;;5.00;1.20;;;12.80;99.90;;;;;;6264762;22;20058;-89
2023/11/01 09:24:30;;;;;;;4.07;1.17;;;12.60;99.90;;;;;;6240297;23;20716;-89
2023/11/01 09:26:56;;;;;;;3.20;1.25;;;13.20;99.90;;;;;;6266781;22;20000;-88
2023/11/01 09:29:21;;;;;;;6.10;1.40;;;13.10;99.90;;;;;;6236876;23;20008;-89
2023/11/01 09:31:47;;;;;;;3.00;1.30;;;13.00;99.90;;;;;;6260676;22;20004;-89
2023/11/01 09:34:13;;;;;;;5.03;1.27;;;13.60;99.90;;;;;;6234433;23;20004;-89
2023/11/01 09:36:40;;;;;;;2.70;1.17;;;12.70;99.90;;;;;;6258985;23;20032;-91
2023/11/01 09:39:06;;;;;;;3.78;1.50;;;13.50;99.90;;;;;;6233124;23;20302;-89
2023/11/01 09:41:54;;;;;;;3.13;1.20;;;12.70;99.90;;;;;;6232394;23;20005;-88
2023/11/01 09:44:20;;;;;;;2.28;1.20;;;12.70;99.90;;;;;;6255189;23;20008;-90
2023/11/01 09:46:47;;;;;;;4.03;1.15;;;13.50;99.90;;;;;;6255462;23;20007;-88
2023/11/01 09:49:14;;;;;;;4.25;1.20;;;13.80;99.90;;;;;;6257076;23;20039;-87
2023/11/01 09:51:40;;;;;;;3.30;1.30;;;12.70;99.90;;;;;;6260109;22;20039;-87
2023/11/01 09:54:11;;;;;;;2.72;1.02;;;13.40;99.90;;;;;;6256019;23;20000;-88
2023/11/01 09:56:41;;;;;;;4.95;1.35;;;12.80;99.90;;;;;;6226382;23;20032;-88
2023/11/01 09:59:07;;;;;;;2.97;1.20;;;14.10;99.90;;;;;;6225858;23;20503;-88
2023/11/01 10:01:34;;;;;;;3.42;1.00;;;14.30;99.90;;;;;;6224995;23;20035;-89
2023/11/01 10:04:01;;;;;;;2.92;1.10;;;14.10;99.90;;;;;;6228933;23;20089;-89
2023/11/01 10:06:27;;;;;;;2.88;1.15;;;12.80;99.90;;;;;;6250682;23;20004;-90
2023/11/01 10:08:56;;;;;;;1.92;0.80;;;13.80;99.90;;;;;;6224037;23;20011;-89
2023/11/01 10:11:22;;;;;;;2.35;1.02;;;12.90;99.90;;;;;;6227026;23;20000;-90
2023/11/01 10:13:49;;;;;;;7.20;3.53;;;13.50;99.90;;;;;;6256582;23;20462;-90
2023/11/01 10:16:15;;;;;;;3.22;1.20;;;13.30;99.90;;;;;;6258710;23;20043;-90
2023/11/01 10:18:41;;;;;;;2.20;0.93;;;12.90;99.90;;;;;;6229975;23;20012;-88
2023/11/01 10:21:08;;;;;;;2.05;1.23;;;13.10;99.90;;;;;;6253216;22;20008;-87
2023/11/01 10:23:35;;;;;;;4.13;1.20;;;12.80;99.90;;;;;;6230821;23;20090;-89
2023/11/01 10:26:04;;;;;;;2.95;1.00;;;13.80;99.90;;;;;;6230527;23;20005;-89
2023/11/01 10:28:34;;;;;;;3.60;1.23;;;12.90;99.90;;;;;;6228602;23;20000;-90
2023/11/01 10:30:59;;;;;;;3.33;1.20;;;13.30;99.90;;;;;;6223865;23;20016;-89
2023/11/01 10:33:25;;;;;;;2.45;1.10;;;13.10;99.90;;;;;;6254231;23;20038;-86
2023/11/01 10:35:59;;;;;;;2.70;0.98;;;13.80;99.90;;;;;;6225256;23;20341;-88
2023/11/01 10:38:26;;;;;;;4.45;1.27;;;13.50;99.90;;;;;;6225762;23;20338;-89
2023/11/01 10:40:51;;;;;;;4.95;0.95;;;13.50;99.90;;;;;;6226686;23;20011;-90
2023/11/01 10:43:18;;;;;;;4.97;1.33;;;13.80;99.90;;;;;;6230666;23;20094;-89
2023/11/01 10:45:48;;;;;;;5.57;1.00;;;13.60;99.90;;;;;;6256000;23;20068;-87
2023/11/01 10:48:15;;;;;;;3.65;1.05;;;12.70;99.90;;;;;;6262312;23;20353;-88
2023/11/01 10:50:44;;;;;;;1.70;0.90;;;13.70;99.90;;;;;;6226627;22;20014;-82
2023/11/01 10:53:11;;;;;;;1.67;0.70;;;14.00;99.90;;;;;;6244291;23;20008;-83
2023/11/01 10:55:37;;;;;;;3.90;1.10;;;13.80;99.90;;;;;;6244638;23;20027;-82
2023/11/01 10:58:05;;;;;;;3.40;1.05;;;14.40;99.90;;;;;;6220999;23;20098;-85
2023/11/01 11:00:51;;;;;;;3.90;1.30;;;15.00;99.90;;;;;;6246456;22;20019;-88
2023/11/01 11:03:43;;;;;;;2.05;0.88;;;14.10;99.90;;;;;;6223162;23;20016;-84
2023/11/01 11:06:10;;;;;;;4.10;1.20;;;14.10;99.90;;;;;;6224287;23;20000;-82
2023/11/01 11:08:36;;;;;;;3.47;1.00;;;14.20;99.90;;;;;;6224298;23;20032;-84
2023/11/01 11:11:17;;;;;;;5.63;1.20;;;14.10;99.90;;;;;;6197711;23;20007;-82
2023/11/01 11:13:46;;;;;;;3.75;1.10;;;14.10;99.90;;;;;;6223273;23;20444;-82
2023/11/01 11:16:17;;;;;;;4.00;1.00;;;14.20;99.90;;;;;;6249708;23;20004;-82
2023/11/01 11:18:44;;;;;;;1.85;0.90;;;14.20;99.90;;;;;;6223560;23;19996;-81
2023/11/01 11:21:45;;;;;;;2.90;1.42;;;14.20;99.90;;;;;;6224290;23;20000;-80
2023/11/01 11:24:41;;;;;;;4.63;1.05;;;14.30;99.90;;;;;;6223695;23;20015;-80
2023/11/01 11:27:45;;;;;;;4.22;1.10;;;14.40;99.90;;;;;;6226869;23;20019;-81
2023/11/01 11:30:10;;;;;;;3.70;0.80;;;14.40;99.90;;;;;;6225193;23;20008;-81
2023/11/01 11:32:36;;;;;;;3.22;1.08;;;14.40;99.90;;;;;;6219115;23;20332;-85
2023/11/01 11:35:18;;;;;;;3.08;0.80;;;14.40;99.90;;;;;;6221142;23;20054;-81
2023/11/01 11:37:44;;;;;;;2.63;0.80;;;14.30;99.90;;;;;;6248862;23;20035;-83
2023/11/01 11:40:10;;;;;;;4.65;1.00;;;14.30;99.90;;;;;;6219364;23;20462;-86
2023/11/01 11:42:43;;;;;;;2.20;0.98;;;14.30;99.90;;;;;;6221013;23;20076;-84
2023/11/01 11:45:09;;;;;;;3.72;0.90;;;14.30;99.90;;;;;;6249845;23;20012;-83
2023/11/01 11:47:34;;;;;;;2.92;0.88;;;14.20;99.90;;;;;;6247164;23;20023;-85
2023/11/01 11:50:10;;;;;;;1.75;0.73;;;14.30;99.90;;;;;;6247703;23;20004;-84
2023/11/01 11:52:43;;;;;;;2.42;1.27;;;14.30;99.90;;;;;;6217468;23;20397;-82
2023/11/01 11:55:08;;;;;;;2.13;1.10;;;14.40;99.90;;;;;;6217034;23;20015;-83
2023/11/01 11:57:34;;;;;;;4.75;1.17;;;14.50;99.90;;;;;;6224467;23;20004;-78
2023/11/01 12:00:02;;;;;;;2.67;0.93;;;14.60;99.90;;;;;;6251124;23;20026;-83
2023/11/01 12:02:27;;;;;;;2.08;0.93;;;14.70;99.90;;;;;;6244362;22;20076;-81
2023/11/01 12:04:54;;;;;;;2.03;0.82;;;14.60;99.90;;;;;;6242892;23;20327;-82
2023/11/01 12:07:21;;;;;;;2.92;1.20;;;14.80;99.90;;;;;;6221857;23;20000;-84
2023/11/01 12:09:54;;;;;;;7.22;1.98;;;14.80;99.90;;;;;;6246551;23;20011;-84
2023/11/01 12:12:20;;;;;;;3.13;1.20;;;14.80;99.90;;;;;;6248036;22;20068;-81
2023/11/01 12:14:55;;;;;;;3.20;1.00;;;14.80;99.90;;;;;;6218336;23;20066;-85
2023/11/01 12:17:21;;;;;;;2.90;1.40;;;15.10;99.90;;;;;;6250344;23;20011;-80
2023/11/01 12:19:47;;;;;;;4.72;1.13;;;14.90;99.90;;;;;;6249572;23;20000;-84
2023/11/01 12:22:13;;;;;;;2.17;0.95;;;15.00;99.90;;;;;;6223571;23;20001;-81
2023/11/01 12:24:38;;;;;;;9.48;3.03;;;15.00;99.90;;;;;;6248148;23;20004;-79
2023/11/01 12:27:27;;;;;;;4.53;1.00;;;15.10;99.90;;;;;;6248536;23;19992;-80
2023/11/01 12:29:55;;;;;;;3.25;0.80;;;15.00;99.90;;;;;;6246328;23;20031;-78
2023/11/01 12:32:23;;;;;;;2.22;0.98;;;15.00;99.90;;;;;;6248229;22;20443;-79
2023/11/01 12:34:49;;;;;;;1.73;0.90;;;15.00;99.90;;;;;;6247875;23;20007;-79
2023/11/01 12:37:18;;;;;;;1.95;0.93;;;15.10;99.90;;;;;;6249857;23;20439;-82
2023/11/01 12:40:04;;;;;;;2.65;1.10;;;15.00;99.90;;;;;;6254250;23;20066;-80
2023/11/01 12:42:30;;;;;;;2.90;0.95;;;15.00;99.90;;;;;;6226219;23;20000;-83
2023/11/01 12:44:56;;;;;;;6.07;1.15;;;15.10;99.90;;;;;;6226553;23;20485;-79
2023/11/01 12:47:23;;;;;;;1.70;0.90;;;15.20;99.90;;;;;;6250032;23;20084;-81
2023/11/01 12:49:54;;;;;;;12.07;1.10;;;15.30;99.90;;;;;;6222077;23;20051;-81
2023/11/01 12:52:20;;;;;;;3.65;0.90;;;15.30;99.90;;;;;;6222050;23;20004;-79
2023/11/01 12:54:46;;;;;;;2.72;1.00;;;15.40;99.90;;;;;;6224741;23;20004;-81
2023/11/01 12:57:13;;;;;;;2.72;0.93;;;15.20;99.90;;;;;;6252132;23;20018;-80
2023/11/01 12:59:40;;;;;;;4.85;0.90;;;15.30;99.90;;;;;;6196789;23;20012;-85
2023/11/01 13:02:07;;;;;;;1.27;0.70;;;15.20;99.90;;;;;;6224614;23;20008;-83
2023/11/01 13:04:33;;;;;;;2.85;0.82;;;15.20;99.90;;;;;;6253154;23;19996;-82
2023/11/01 13:07:00;;;;;;;3.38;1.30;;;15.60;99.90;;;;;;6254833;23;20046;-82
2023/11/01 13:09:26;;;;;;;3.78;0.95;;;15.20;99.90;;;;;;6252462;23;20000;-83
2023/11/01 13:11:52;;;;;;;3.55;0.80;;;15.30;99.90;;;;;;6252665;22;20011;-83
2023/11/01 13:14:18;;;;;;;3.40;1.00;;;15.30;99.90;;;;;;6252420;23;20371;-86
2023/11/01 13:16:44;;;;;;;5.22;1.52;;;15.30;99.90;;;;;;6251050;23;20004;-86
2023/11/01 13:19:11;;;;;;;2.45;0.95;;;15.30;99.90;;;;;;6251023;23;20046;-82
2023/11/01 13:21:37;;;;;;;1.42;0.95;;;15.30;99.90;;;;;;6222559;23;20313;-84
2023/11/01 13:24:03;;;;;;;1.52;0.80;;;15.30;99.90;;;;;;6250193;23;20000;-84
2023/11/01 13:26:28;;;;;;;6.75;0.98;;;15.40;99.90;;;;;;6251632;23;20008;-84
2023/11/01 13:28:54;;;;;;;2.83;0.90;;;15.40;99.90;;;;;;6220140;23;20001;-82
2023/11/01 13:31:20;;;;;;;1.77;0.77;;;15.40;99.90;;;;;;6221588;23;20491;-85
2023/11/01 13:33:47;;;;;;;2.60;0.95;;;15.40;99.90;;;;;;6225301;23;20038;-84
2023/11/01 13:36:13;;;;;;;5.22;1.25;;;15.30;99.90;;;;;;6220695;23;20359;-85
2023/11/01 13:38:39;;;;;;;1.63;0.80;;;15.30;99.90;;;;;;6221957;23;20011;-84
2023/11/01 13:41:04;;;;;;;2.38;1.20;;;15.20;99.90;;;;;;6221145;23;20082;-83
2023/11/01 13:43:30;;;;;;;1.45;0.93;;;15.20;99.90;;;;;;6199365;23;20044;-84
2023/11/01 13:45:57;;;;;;;4.85;0.90;;;15.20;99.90;;;;;;6254409;23;20038;-83
2023/11/01 13:48:24;;;;;;;3.00;0.98;;;15.20;99.90;;;;;;6254031;23;20004;-81
2023/11/01 13:50:50;;;;;;;1.83;0.80;;;15.20;99.90;;;;;;6255777;22;20052;-82
2023/11/01 13:53:15;;;;;;;1.80;0.90;;;15.10;99.90;;;;;;6230656;23;20009;-85
2023/11/01 13:55:45;;;;;;;2.20;0.95;;;15.80;99.90;;;;;;6229499;23;20015;-82
2023/11/01 13:58:15;;;;;;;4.35;1.90;;;15.00;99.90;;;;;;6226674;23;20146;-79
2023/11/01 14:00:41;;;;;;;3.10;0.70;;;15.20;99.90;;;;;;6228458;22;20012;-85
2023/11/01 14:03:06;;;;;;;4.53;1.23;;;15.10;99.90;;;;;;6255070;23;20010;-84
2023/11/01 14:05:33;;;;;;;2.30;1.08;;;15.00;99.90;;;;;;6253960;23;20046;-80
2023/11/01 14:07:58;;;;;;;2.30;1.10;;;15.20;99.90;;;;;;6254201;23;20003;-80
2023/11/01 14:10:24;;;;;;;4.35;0.90;;;15.00;99.90;;;;;;6224692;22;20343;-85
2023/11/01 14:12:50;;;;;;;3.38;1.15;;;15.10;99.90;;;;;;6226252;23;20019;-82
2023/11/01 14:15:20;;;;;;;6.10;1.23;;;15.10;99.90;;;;;;6254736;23;20007;-80
2023/11/01 14:17:46;;;;;;;3.33;1.08;;;15.00;99.90;;;;;;6255425;23;20007;-80
2023/11/01 14:20:12;;;;;;;2.90;1.00;;;15.00;99.90;;;;;;6252753;23;20008;-81
2023/11/01 14:22:42;;;;;;;4.43;1.10;;;15.00;99.90;;;;;;6226571;23;20008;-80
2023/11/01 14:25:12;;;;;;;3.28;1.05;;;14.90;99.90;;;;;;6253488;23;20005;-83
2023/11/01 14:27:39;;;;;;;3.10;1.20;;;14.90;99.90;;;;;;6227374;23;20064;-87
2023/11/01 14:30:07;;;;;;;3.75;1.33;;;14.90;99.90;;;;;;6227235;23;20011;-84
2023/11/01 14:32:32;;;;;;;2.72;1.00;;;14.90;99.90;;;;;;6227947;23;20004;-83
2023/11/01 14:34:59;;;;;;;3.00;1.20;;;14.80;99.90;;;;;;6253351;23;20000;-82
2023/11/01 14:37:25;;;;;;;2.60;1.20;;;14.90;99.90;;;;;;6228029;23;20092;-82
2023/11/01 14:39:51;;;;;;;5.47;1.20;;;14.80;99.90;;;;;;6225685;23;20071;-81
2023/11/01 14:42:17;;;;;;;2.20;1.08;;;14.80;99.90;;;;;;6227145;23;20001;-79
2023/11/01 14:44:43;;;;;;;3.28;1.00;;;14.70;99.90;;;;;;6222210;23;19997;-85
2023/11/01 14:47:09;;;;;;;3.20;0.95;;;14.80;99.90;;;;;;6225743;23;20138;-82
2023/11/01 14:49:35;;;;;;;2.28;1.10;;;14.80;99.90;;;;;;6229044;23;20011;-83
2023/11/01 14:52:00;;;;;;;2.33;1.00;;;15.40;99.90;;;;;;6227543;23;20004;-83
2023/11/01 14:54:27;;;;;;;3.88;1.63;;;14.90;99.90;;;;;;6227793;23;20105;-85
2023/11/01 14:56:53;;;;;;;3.60;1.30;;;14.80;99.90;;;;;;6227517;23;20101;-85
2023/11/01 14:59:19;;;;;;;5.35;1.63;;;14.80;99.90;;;;;;6227091;23;20004;-83
2023/11/01 15:01:50;;;;;;;2.25;1.05;;;14.80;99.90;;;;;;6223579;23;20008;-87
2023/11/01 15:04:17;;;;;;;4.97;1.08;;;14.70;99.90;;;;;;6249942;23;20008;-82
2023/11/01 15:06:43;;;;;;;4.72;1.10;;;15.30;99.90;;;;;;6252934;23;20008;-83
2023/11/01 15:09:09;;;;;;;7.45;1.60;;;15.40;99.90;;;;;;6227068;23;20000;-82
2023/11/01 15:11:34;;;;;;;5.00;1.98;;;14.60;99.90;;;;;;6227619;23;20006;-84
2023/11/01 15:14:01;;;;;;;4.47;1.70;;;15.10;99.90;;;;;;6228347;23;20031;-82
2023/11/01 15:16:26;;;;;;;2.83;1.25;;;14.80;99.90;;;;;;6253916;23;20004;-87
2023/11/01 15:18:52;;;;;;;4.45;1.30;;;14.50;99.90;;;;;;6255242;23;20011;-85
2023/11/01 15:21:18;;;;;;;16.25;2.45;;;14.50;99.90;;;;;;6227488;23;20034;-82
2023/11/01 15:23:44;;;;;;;2.33;1.20;;;15.20;99.90;;;;;;6253437;23;20016;-85
2023/11/01 15:26:10;;;;;;;3.28;1.30;;;14.90;99.90;;;;;;6227073;23;20087;-84
2023/11/01 15:28:35;;;;;;;4.43;1.25;;;14.40;99.90;;;;;;6224911;23;20004;-83
2023/11/01 15:31:01;;;;;;;5.47;1.45;;;14.50;99.90;;;;;;6226609;23;20008;-83
2023/11/01 15:33:27;;;;;;;4.93;1.05;;;14.40;99.90;;;;;;6224733;23;20015;-85
2023/11/01 15:35:53;;;;;;;3.40;1.70;;;14.50;99.90;;;;;;6226938;23;20508;-85
2023/11/01 15:38:19;;;;;;;4.18;2.58;;;14.50;99.90;;;;;;6202757;23;20008;-86
2023/11/01 15:40:45;;;;;;;9.00;4.15;;;14.40;99.90;;;;;;6226393;22;20063;-86
2023/11/01 15:43:11;;;;;;;4.00;1.45;;;14.30;99.90;;;;;;6226379;23;20012;-84
2023/11/01 15:45:37;;;;;;;4.10;1.77;;;14.30;99.90;;;;;;6224949;23;20000;-87
2023/11/01 15:48:03;;;;;;;5.18;1.20;;;14.20;99.90;;;;;;6199809;23;20008;-84
2023/11/01 15:50:29;;;;;;;3.88;1.13;;;14.10;99.90;;;;;;6253664;22;20412;-85
2023/11/01 15:52:55;;;;;;;3.90;1.50;;;14.10;99.90;;;;;;6254070;23;20074;-87
